sensor_id;sensor_type;location;lat;lon;timestamp;P1;durP1;ratioP1;P2;durP2;ratioP2
41514;SDS011;27247;48.020;16.720;2024-03-29T00:02:34;0.50;;;0.40;;
41514;SDS011;27247;48.020;16.720;2024-03-29T00:06:44;0.27;;;0.27;;
41514;SDS011;27247;48.020;16.720;2024-03-29T00:10:55;0.80;;;0.80;;
41514;SDS011;27247;48.020;16.720;2024-03-29T00:15:05;0.20;;;0.20;;
41514;SDS011;27247;48.020;16.720;2024-03-29T00:19:17;0.45;;;0.38;;
41514;SDS011;27247;48.020;16.720;2024-03-29T00:23:27;0.60;;;0.30;;
41514;SDS011;27247;48.020;16.720;2024-03-29T00:27:38;0.57;;;0.40;;
41514;SDS011;27247;48.020;16.720;2024-03-29T00:31:48;0.40;;;0.30;;
41514;SDS011;27247;48.020;16.720;2024-03-29T00:35:58;0.40;;;0.40;;
41514;SDS011;27247;48.020;16.720;2024-03-29T00:40:09;0.30;;;0.30;;
41514;SDS011;27247;48.020;16.720;2024-03-29T00:44:20;0.30;;;0.30;;
41514;SDS011;27247;48.020;16.720;2024-03-29T00:48:30;1.10;;;0.50;;
41514;SDS011;27247;48.020;16.720;2024-03-29T00:52:41;0.67;;;0.40;;
41514;SDS011;27247;48.020;16.720;2024-03-29T00:56:51;0.40;;;0.25;;
41514;SDS011;27247;48.020;16.720;2024-03-29T01:01:02;0.50;;;0.40;;
41514;SDS011;27247;48.020;16.720;2024-03-29T01:05:12;0.65;;;0.40;;
41514;SDS011;27247;48.020;16.720;2024-03-29T01:09:23;1.23;;;0.40;;
41514;SDS011;27247;48.020;16.720;2024-03-29T01:13:33;0.67;;;0.60;;
41514;SDS011;27247;48.020;16.720;2024-03-29T01:17:43;0.47;;;0.40;;
41514;SDS011;27247;48.020;16.720;2024-03-29T01:21:54;1.90;;;0.50;;
41514;SDS011;27247;48.020;16.720;2024-03-29T01:26:05;0.90;;;0.73;;
41514;SDS011;27247;48.020;16.720;2024-03-29T01:30:16;0.70;;;0.60;;
41514;SDS011;27247;48.020;16.720;2024-03-29T01:34:26;37.40;;;12.45;;
41514;SDS011;27247;48.020;16.720;2024-03-29T01:38:37;2.90;;;1.00;;
41514;SDS011;27247;48.020;16.720;2024-03-29T01:42:47;1.30;;;0.70;;
41514;SDS011;27247;48.020;16.720;2024-03-29T01:46:57;0.60;;;0.50;;
41514;SDS011;27247;48.020;16.720;2024-03-29T01:51:09;0.98;;;0.80;;
41514;SDS011;27247;48.020;16.720;2024-03-29T01:55:23;0.68;;;0.43;;
41514;SDS011;27247;48.020;16.720;2024-03-29T01:59:33;0.60;;;0.50;;
41514;SDS011;27247;48.020;16.720;2024-03-29T02:03:44;1.05;;;0.65;;
41514;SDS011;27247;48.020;16.720;2024-03-29T02:07:55;0.63;;;0.63;;
41514;SDS011;27247;48.020;16.720;2024-03-29T02:12:06;0.85;;;0.80;;
41514;SDS011;27247;48.020;16.720;2024-03-29T02:16:17;1.48;;;0.70;;
41514;SDS011;27247;48.020;16.720;2024-03-29T02:20:28;1.70;;;0.63;;
41514;SDS011;27247;48.020;16.720;2024-03-29T02:24:39;1.25;;;0.57;;
41514;SDS011;27247;48.020;16.720;2024-03-29T02:28:49;0.85;;;0.65;;
41514;SDS011;27247;48.020;16.720;2024-03-29T02:33:00;0.63;;;0.50;;
41514;SDS011;27247;48.020;16.720;2024-03-29T02:37:10;1.15;;;0.60;;
41514;SDS011;27247;48.020;16.720;2024-03-29T02:41:21;1.33;;;0.90;;
41514;SDS011;27247;48.020;16.720;2024-03-29T02:45:32;1.10;;;0.82;;
41514;SDS011;27247;48.020;16.720;2024-03-29T02:49:42;1.30;;;0.70;;
41514;SDS011;27247;48.020;16.720;2024-03-29T02:53:53;1.17;;;0.50;;
41514;SDS011;27247;48.020;16.720;2024-03-29T02:58:03;0.63;;;0.37;;
41514;SDS011;27247;48.020;16.720;2024-03-29T03:02:14;2.13;;;0.47;;
41514;SDS011;27247;48.020;16.720;2024-03-29T03:06:24;0.80;;;0.30;;
41514;SDS011;27247;48.020;16.720;2024-03-29T03:10:34;0.47;;;0.40;;
41514;SDS011;27247;48.020;16.720;2024-03-29T03:15:03;0.75;;;0.47;;
41514;SDS011;27247;48.020;16.720;2024-03-29T03:19:14;0.95;;;0.50;;
41514;SDS011;27247;48.020;16.720;2024-03-29T03:23:25;0.85;;;0.50;;
41514;SDS011;27247;48.020;16.720;2024-03-29T03:27:36;0.70;;;0.60;;
41514;SDS011;27247;48.020;16.720;2024-03-29T03:31:46;0.70;;;0.50;;
41514;SDS011;27247;48.020;16.720;2024-03-29T03:35:56;1.03;;;0.60;;
41514;SDS011;27247;48.020;16.720;2024-03-29T03:40:07;1.47;;;0.60;;
41514;SDS011;27247;48.020;16.720;2024-03-29T03:44:17;1.00;;;0.60;;
41514;SDS011;27247;48.020;16.720;2024-03-29T03:48:28;0.68;;;0.60;;
41514;SDS011;27247;48.020;16.720;2024-03-29T03:52:41;0.88;;;0.60;;
41514;SDS011;27247;48.020;16.720;2024-03-29T03:56:52;0.60;;;0.57;;
41514;SDS011;27247;48.020;16.720;2024-03-29T04:01:05;0.90;;;0.67;;
41514;SDS011;27247;48.020;16.720;2024-03-29T04:05:16;1.20;;;0.70;;
41514;SDS011;27247;48.020;16.720;2024-03-29T04:09:27;1.38;;;0.68;;
41514;SDS011;27247;48.020;16.720;2024-03-29T04:13:38;1.05;;;0.50;;
41514;SDS011;27247;48.020;16.720;2024-03-29T04:17:50;0.60;;;0.60;;
41514;SDS011;27247;48.020;16.720;2024-03-29T04:22:01;1.40;;;0.68;;
41514;SDS011;27247;48.020;16.720;2024-03-29T04:26:11;0.68;;;0.60;;
41514;SDS011;27247;48.020;16.720;2024-03-29T04:30:21;1.00;;;0.80;;
41514;SDS011;27247;48.020;16.720;2024-03-29T04:34:33;1.25;;;0.50;;
41514;SDS011;27247;48.020;16.720;2024-03-29T04:38:43;1.77;;;0.52;;
41514;SDS011;27247;48.020;16.720;2024-03-29T04:42:54;1.23;;;0.80;;
41514;SDS011;27247;48.020;16.720;2024-03-29T04:47:04;1.10;;;0.50;;
41514;SDS011;27247;48.020;16.720;2024-03-29T04:51:15;1.25;;;0.80;;
41514;SDS011;27247;48.020;16.720;2024-03-29T04:55:25;0.95;;;0.80;;
41514;SDS011;27247;48.020;16.720;2024-03-29T04:59:35;2.22;;;0.60;;
41514;SDS011;27247;48.020;16.720;2024-03-29T05:03:46;1.95;;;0.80;;
41514;SDS011;27247;48.020;16.720;2024-03-29T05:07:56;1.70;;;0.85;;
41514;SDS011;27247;48.020;16.720;2024-03-29T05:12:06;1.83;;;1.08;;
41514;SDS011;27247;48.020;16.720;2024-03-29T05:16:17;2.05;;;1.35;;
41514;SDS011;27247;48.020;16.720;2024-03-29T05:20:27;1.27;;;0.98;;
41514;SDS011;27247;48.020;16.720;2024-03-29T05:24:38;1.70;;;0.70;;
41514;SDS011;27247;48.020;16.720;2024-03-29T05:28:48;4.70;;;1.00;;
41514;SDS011;27247;48.020;16.720;2024-03-29T05:32:58;0.80;;;0.80;;
41514;SDS011;27247;48.020;16.720;2024-03-29T05:37:09;3.55;;;0.88;;
41514;SDS011;27247;48.020;16.720;2024-03-29T05:41:19;1.23;;;0.88;;
41514;SDS011;27247;48.020;16.720;2024-03-29T05:45:30;1.80;;;0.75;;
41514;SDS011;27247;48.020;16.720;2024-03-29T05:49:40;1.25;;;0.50;;
41514;SDS011;27247;48.020;16.720;2024-03-29T05:53:51;1.10;;;0.60;;
41514;SDS011;27247;48.020;16.720;2024-03-29T05:58:01;3.70;;;1.05;;
41514;SDS011;27247;48.020;16.720;2024-03-29T06:02:12;0.63;;;0.63;;
41514;SDS011;27247;48.020;16.720;2024-03-29T06:06:23;1.42;;;0.75;;
41514;SDS011;27247;48.020;16.720;2024-03-29T06:10:34;0.90;;;0.70;;
41514;SDS011;27247;48.020;16.720;2024-03-29T06:14:44;0.80;;;0.63;;
41514;SDS011;27247;48.020;16.720;2024-03-29T06:19:14;1.20;;;0.60;;
41514;SDS011;27247;48.020;16.720;2024-03-29T06:23:25;0.68;;;0.50;;
41514;SDS011;27247;48.020;16.720;2024-03-29T06:27:36;1.23;;;0.73;;
41514;SDS011;27247;48.020;16.720;2024-03-29T06:31:49;2.88;;;0.70;;
41514;SDS011;27247;48.020;16.720;2024-03-29T06:36:00;3.13;;;1.10;;
41514;SDS011;27247;48.020;16.720;2024-03-29T06:40:10;2.40;;;0.77;;
41514;SDS011;27247;48.020;16.720;2024-03-29T06:44:21;1.55;;;0.82;;
41514;SDS011;27247;48.020;16.720;2024-03-29T06:48:31;1.30;;;0.80;;
41514;SDS011;27247;48.020;16.720;2024-03-29T06:52:41;1.92;;;0.70;;
41514;SDS011;27247;48.020;16.720;2024-03-29T06:56:52;2.77;;;1.10;;
41514;SDS011;27247;48.020;16.720;2024-03-29T07:01:03;1.13;;;0.90;;
41514;SDS011;27247;48.020;16.720;2024-03-29T07:05:14;5.38;;;1.00;;
41514;SDS011;27247;48.020;16.720;2024-03-29T07:09:24;3.95;;;1.00;;
41514;SDS011;27247;48.020;16.720;2024-03-29T07:13:34;2.15;;;0.70;;
41514;SDS011;27247;48.020;16.720;2024-03-29T07:17:45;1.42;;;0.80;;
41514;SDS011;27247;48.020;16.720;2024-03-29T07:21:56;1.33;;;0.60;;
41514;SDS011;27247;48.020;16.720;2024-03-29T07:26:07;5.17;;;0.90;;
41514;SDS011;27247;48.020;16.720;2024-03-29T07:30:17;2.35;;;0.70;;
41514;SDS011;27247;48.020;16.720;2024-03-29T07:34:27;0.68;;;0.60;;
41514;SDS011;27247;48.020;16.720;2024-03-29T07:38:38;1.05;;;0.60;;
41514;SDS011;27247;48.020;16.720;2024-03-29T07:42:48;1.05;;;0.60;;
41514;SDS011;27247;48.020;16.720;2024-03-29T07:46:58;1.00;;;0.50;;
41514;SDS011;27247;48.020;16.720;2024-03-29T07:51:09;1.58;;;0.60;;
41514;SDS011;27247;48.020;16.720;2024-03-29T07:55:19;0.50;;;0.40;;
41514;SDS011;27247;48.020;16.720;2024-03-29T07:59:30;3.23;;;0.43;;
41514;SDS011;27247;48.020;16.720;2024-03-29T08:03:40;0.65;;;0.40;;
41514;SDS011;27247;48.020;16.720;2024-03-29T08:07:50;0.83;;;0.80;;
41514;SDS011;27247;48.020;16.720;2024-03-29T08:12:01;1.08;;;0.40;;
41514;SDS011;27247;48.020;16.720;2024-03-29T08:16:11;2.28;;;0.50;;
41514;SDS011;27247;48.020;16.720;2024-03-29T08:20:22;0.98;;;0.43;;
41514;SDS011;27247;48.020;16.720;2024-03-29T08:24:39;0.68;;;0.50;;
41514;SDS011;27247;48.020;16.720;2024-03-29T08:28:49;0.40;;;0.40;;
41514;SDS011;27247;48.020;16.720;2024-03-29T08:33:01;1.15;;;0.60;;
41514;SDS011;27247;48.020;16.720;2024-03-29T08:37:15;2.92;;;0.73;;
41514;SDS011;27247;48.020;16.720;2024-03-29T08:41:25;6.28;;;0.88;;
41514;SDS011;27247;48.020;16.720;2024-03-29T08:45:35;4.63;;;0.87;;
41514;SDS011;27247;48.020;16.720;2024-03-29T08:49:51;1.88;;;0.90;;
41514;SDS011;27247;48.020;16.720;2024-03-29T08:54:01;5.22;;;1.15;;
41514;SDS011;27247;48.020;16.720;2024-03-29T08:58:15;4.78;;;0.85;;
41514;SDS011;27247;48.020;16.720;2024-03-29T09:02:25;3.05;;;0.90;;
41514;SDS011;27247;48.020;16.720;2024-03-29T09:06:36;6.38;;;1.30;;
41514;SDS011;27247;48.020;16.720;2024-03-29T09:10:47;4.38;;;0.98;;
41514;SDS011;27247;48.020;16.720;2024-03-29T09:14:58;3.25;;;1.33;;
41514;SDS011;27247;48.020;16.720;2024-03-29T09:19:09;3.63;;;0.93;;
41514;SDS011;27247;48.020;16.720;2024-03-29T09:23:19;3.78;;;1.23;;
41514;SDS011;27247;48.020;16.720;2024-03-29T09:27:33;4.65;;;1.17;;
41514;SDS011;27247;48.020;16.720;2024-03-29T09:31:45;5.97;;;1.25;;
41514;SDS011;27247;48.020;16.720;2024-03-29T09:35:56;4.95;;;1.30;;
41514;SDS011;27247;48.020;16.720;2024-03-29T09:40:09;5.13;;;1.50;;
41514;SDS011;27247;48.020;16.720;2024-03-29T09:44:20;7.60;;;1.48;;
41514;SDS011;27247;48.020;16.720;2024-03-29T09:48:33;3.40;;;1.38;;
41514;SDS011;27247;48.020;16.720;2024-03-29T09:52:51;6.88;;;1.45;;
41514;SDS011;27247;48.020;16.720;2024-03-29T09:57:02;3.28;;;1.30;;
41514;SDS011;27247;48.020;16.720;2024-03-29T10:01:16;5.03;;;1.40;;
41514;SDS011;27247;48.020;16.720;2024-03-29T10:05:26;4.32;;;1.33;;
41514;SDS011;27247;48.020;16.720;2024-03-29T10:09:37;5.15;;;1.55;;
41514;SDS011;27247;48.020;16.720;2024-03-29T10:13:50;4.93;;;1.48;;
41514;SDS011;27247;48.020;16.720;2024-03-29T10:18:00;4.70;;;1.20;;
41514;SDS011;27247;48.020;16.720;2024-03-29T10:22:11;8.55;;;1.42;;
41514;SDS011;27247;48.020;16.720;2024-03-29T10:26:21;7.80;;;2.08;;
41514;SDS011;27247;48.020;16.720;2024-03-29T10:30:32;8.10;;;1.67;;
41514;SDS011;27247;48.020;16.720;2024-03-29T10:34:43;9.13;;;1.83;;
41514;SDS011;27247;48.020;16.720;2024-03-29T10:38:55;4.23;;;1.23;;
41514;SDS011;27247;48.020;16.720;2024-03-29T10:43:06;7.22;;;1.50;;
41514;SDS011;27247;48.020;16.720;2024-03-29T10:47:24;6.20;;;1.52;;
41514;SDS011;27247;48.020;16.720;2024-03-29T10:51:37;7.88;;;2.53;;
41514;SDS011;27247;48.020;16.720;2024-03-29T10:55:53;4.82;;;1.50;;
41514;SDS011;27247;48.020;16.720;2024-03-29T11:00:11;5.47;;;1.55;;
41514;SDS011;27247;48.020;16.720;2024-03-29T11:04:32;7.55;;;1.65;;
41514;SDS011;27247;48.020;16.720;2024-03-29T11:08:44;6.38;;;1.77;;
41514;SDS011;27247;48.020;16.720;2024-03-29T11:17:26;7.43;;;2.00;;
41514;SDS011;27247;48.020;16.720;2024-03-29T11:21:40;6.72;;;1.23;;
41514;SDS011;27247;48.020;16.720;2024-03-29T11:25:53;5.55;;;1.55;;
41514;SDS011;27247;48.020;16.720;2024-03-29T11:30:05;5.30;;;1.63;;
41514;SDS011;27247;48.020;16.720;2024-03-29T11:34:19;5.93;;;1.55;;
41514;SDS011;27247;48.020;16.720;2024-03-29T11:38:39;5.13;;;1.58;;
41514;SDS011;27247;48.020;16.720;2024-03-29T11:42:51;4.38;;;1.10;;
41514;SDS011;27247;48.020;16.720;2024-03-29T11:47:02;3.80;;;1.35;;
41514;SDS011;27247;48.020;16.720;2024-03-29T11:51:17;4.07;;;1.42;;
41514;SDS011;27247;48.020;16.720;2024-03-29T11:55:31;4.70;;;1.20;;
41514;SDS011;27247;48.020;16.720;2024-03-29T11:59:44;5.68;;;1.00;;
41514;SDS011;27247;48.020;16.720;2024-03-29T12:03:54;4.40;;;1.40;;
41514;SDS011;27247;48.020;16.720;2024-03-29T12:08:05;5.20;;;1.50;;
41514;SDS011;27247;48.020;16.720;2024-03-29T12:12:16;4.15;;;1.25;;
41514;SDS011;27247;48.020;16.720;2024-03-29T12:16:27;3.53;;;1.25;;
41514;SDS011;27247;48.020;16.720;2024-03-29T12:20:38;4.28;;;1.33;;
41514;SDS011;27247;48.020;16.720;2024-03-29T12:24:49;4.32;;;1.33;;
41514;SDS011;27247;48.020;16.720;2024-03-29T12:28:59;2.80;;;1.33;;
41514;SDS011;27247;48.020;16.720;2024-03-29T12:33:15;6.57;;;1.45;;
41514;SDS011;27247;48.020;16.720;2024-03-29T12:37:29;4.65;;;1.10;;
41514;SDS011;27247;48.020;16.720;2024-03-29T12:41:40;8.07;;;1.20;;
41514;SDS011;27247;48.020;16.720;2024-03-29T12:45:51;5.80;;;1.10;;
41514;SDS011;27247;48.020;16.720;2024-03-29T12:50:02;4.90;;;1.48;;
41514;SDS011;27247;48.020;16.720;2024-03-29T12:54:13;6.45;;;1.52;;
41514;SDS011;27247;48.020;16.720;2024-03-29T12:58:24;6.28;;;1.33;;
41514;SDS011;27247;48.020;16.720;2024-03-29T13:02:35;2.33;;;0.70;;
41514;SDS011;27247;48.020;16.720;2024-03-29T13:06:46;4.13;;;1.27;;
41514;SDS011;27247;48.020;16.720;2024-03-29T13:10:56;6.97;;;1.10;;
41514;SDS011;27247;48.020;16.720;2024-03-29T13:15:14;3.30;;;1.13;;
41514;SDS011;27247;48.020;16.720;2024-03-29T13:19:37;6.15;;;1.13;;
41514;SDS011;27247;48.020;16.720;2024-03-29T13:23:48;5.77;;;0.80;;
41514;SDS011;27247;48.020;16.720;2024-03-29T13:27:58;3.00;;;0.80;;
41514;SDS011;27247;48.020;16.720;2024-03-29T13:32:08;5.13;;;1.25;;
41514;SDS011;27247;48.020;16.720;2024-03-29T13:36:19;2.87;;;1.40;;
41514;SDS011;27247;48.020;16.720;2024-03-29T13:40:29;6.63;;;1.38;;
41514;SDS011;27247;48.020;16.720;2024-03-29T13:44:40;4.15;;;0.75;;
41514;SDS011;27247;48.020;16.720;2024-03-29T13:48:51;6.73;;;1.03;;
41514;SDS011;27247;48.020;16.720;2024-03-29T13:53:01;6.03;;;1.08;;
41514;SDS011;27247;48.020;16.720;2024-03-29T13:57:14;2.97;;;1.00;;
41514;SDS011;27247;48.020;16.720;2024-03-29T14:01:24;4.68;;;1.33;;
41514;SDS011;27247;48.020;16.720;2024-03-29T14:05:35;4.33;;;1.10;;
41514;SDS011;27247;48.020;16.720;2024-03-29T14:09:46;4.38;;;1.05;;
41514;SDS011;27247;48.020;16.720;2024-03-29T14:13:57;5.53;;;1.15;;
41514;SDS011;27247;48.020;16.720;2024-03-29T14:18:07;3.67;;;1.00;;
41514;SDS011;27247;48.020;16.720;2024-03-29T14:22:18;4.07;;;0.85;;
41514;SDS011;27247;48.020;16.720;2024-03-29T14:26:33;2.45;;;1.08;;
41514;SDS011;27247;48.020;16.720;2024-03-29T14:30:44;3.05;;;0.98;;
41514;SDS011;27247;48.020;16.720;2024-03-29T14:34:54;4.38;;;1.02;;
41514;SDS011;27247;48.020;16.720;2024-03-29T14:39:05;4.07;;;1.13;;
41514;SDS011;27247;48.020;16.720;2024-03-29T14:43:16;4.25;;;1.00;;
41514;SDS011;27247;48.020;16.720;2024-03-29T14:47:26;1.50;;;0.80;;
41514;SDS011;27247;48.020;16.720;2024-03-29T14:51:36;5.97;;;0.90;;
41514;SDS011;27247;48.020;16.720;2024-03-29T14:55:47;3.95;;;0.80;;
41514;SDS011;27247;48.020;16.720;2024-03-29T14:59:57;5.20;;;1.02;;
41514;SDS011;27247;48.020;16.720;2024-03-29T15:04:08;2.88;;;1.00;;
41514;SDS011;27247;48.020;16.720;2024-03-29T15:08:18;3.80;;;0.93;;
41514;SDS011;27247;48.020;16.720;2024-03-29T15:12:29;2.60;;;0.77;;
41514;SDS011;27247;48.020;16.720;2024-03-29T15:16:39;3.77;;;1.00;;
41514;SDS011;27247;48.020;16.720;2024-03-29T15:20:53;4.83;;;1.20;;
41514;SDS011;27247;48.020;16.720;2024-03-29T15:25:04;2.78;;;1.08;;
41514;SDS011;27247;48.020;16.720;2024-03-29T15:29:15;5.40;;;1.33;;
41514;SDS011;27247;48.020;16.720;2024-03-29T15:33:26;6.03;;;1.10;;
41514;SDS011;27247;48.020;16.720;2024-03-29T15:37:37;5.32;;;1.67;;
41514;SDS011;27247;48.020;16.720;2024-03-29T15:41:47;7.55;;;2.03;;
41514;SDS011;27247;48.020;16.720;2024-03-29T15:45:58;9.55;;;1.90;;
41514;SDS011;27247;48.020;16.720;2024-03-29T15:50:09;8.18;;;1.92;;
41514;SDS011;27247;48.020;16.720;2024-03-29T15:54:19;7.30;;;1.90;;
41514;SDS011;27247;48.020;16.720;2024-03-29T15:58:31;8.25;;;2.25;;
41514;SDS011;27247;48.020;16.720;2024-03-29T16:02:45;11.73;;;2.13;;
41514;SDS011;27247;48.020;16.720;2024-03-29T16:06:57;9.18;;;1.83;;
41514;SDS011;27247;48.020;16.720;2024-03-29T16:11:08;6.68;;;1.52;;
41514;SDS011;27247;48.020;16.720;2024-03-29T16:15:18;10.27;;;2.63;;
41514;SDS011;27247;48.020;16.720;2024-03-29T16:19:29;9.93;;;2.10;;
41514;SDS011;27247;48.020;16.720;2024-03-29T16:23:39;8.15;;;2.58;;
41514;SDS011;27247;48.020;16.720;2024-03-29T16:27:49;9.10;;;2.17;;
41514;SDS011;27247;48.020;16.720;2024-03-29T16:32:00;12.17;;;2.83;;
41514;SDS011;27247;48.020;16.720;2024-03-29T16:36:11;5.78;;;1.92;;
41514;SDS011;27247;48.020;16.720;2024-03-29T16:40:21;8.23;;;2.10;;
41514;SDS011;27247;48.020;16.720;2024-03-29T16:44:31;8.18;;;2.40;;
41514;SDS011;27247;48.020;16.720;2024-03-29T16:48:42;7.07;;;2.37;;
41514;SDS011;27247;48.020;16.720;2024-03-29T16:52:52;8.50;;;1.60;;
41514;SDS011;27247;48.020;16.720;2024-03-29T16:57:02;9.60;;;2.53;;
41514;SDS011;27247;48.020;16.720;2024-03-29T17:01:13;10.50;;;2.20;;
41514;SDS011;27247;48.020;16.720;2024-03-29T17:05:23;12.80;;;2.70;;
41514;SDS011;27247;48.020;16.720;2024-03-29T17:09:34;7.72;;;1.95;;
41514;SDS011;27247;48.020;16.720;2024-03-29T17:13:46;12.00;;;2.33;;
41514;SDS011;27247;48.020;16.720;2024-03-29T17:17:57;6.40;;;2.10;;
41514;SDS011;27247;48.020;16.720;2024-03-29T17:22:07;9.47;;;2.07;;
41514;SDS011;27247;48.020;16.720;2024-03-29T17:26:18;10.10;;;2.15;;
41514;SDS011;27247;48.020;16.720;2024-03-29T17:30:28;36.15;;;14.35;;
41514;SDS011;27247;48.020;16.720;2024-03-29T17:34:38;12.23;;;2.55;;
41514;SDS011;27247;48.020;16.720;2024-03-29T17:38:49;13.75;;;3.28;;
41514;SDS011;27247;48.020;16.720;2024-03-29T17:42:59;12.02;;;2.92;;
41514;SDS011;27247;48.020;16.720;2024-03-29T17:47:10;10.10;;;3.00;;
41514;SDS011;27247;48.020;16.720;2024-03-29T17:51:20;9.63;;;2.53;;
41514;SDS011;27247;48.020;16.720;2024-03-29T17:55:30;12.65;;;3.13;;
41514;SDS011;27247;48.020;16.720;2024-03-29T17:59:41;12.52;;;1.95;;
41514;SDS011;27247;48.020;16.720;2024-03-29T18:03:52;6.90;;;2.15;;
41514;SDS011;27247;48.020;16.720;2024-03-29T18:08:03;8.55;;;2.00;;
41514;SDS011;27247;48.020;16.720;2024-03-29T18:12:13;5.35;;;1.85;;
41514;SDS011;27247;48.020;16.720;2024-03-29T18:16:24;11.70;;;2.27;;
41514;SDS011;27247;48.020;16.720;2024-03-29T18:20:34;8.15;;;1.73;;
41514;SDS011;27247;48.020;16.720;2024-03-29T18:24:45;8.52;;;1.70;;
41514;SDS011;27247;48.020;16.720;2024-03-29T18:28:55;9.55;;;1.75;;
41514;SDS011;27247;48.020;16.720;2024-03-29T18:33:06;7.70;;;1.95;;
41514;SDS011;27247;48.020;16.720;2024-03-29T18:37:16;15.18;;;2.35;;
41514;SDS011;27247;48.020;16.720;2024-03-29T18:41:26;14.07;;;2.10;;
41514;SDS011;27247;48.020;16.720;2024-03-29T18:45:39;8.30;;;1.73;;
41514;SDS011;27247;48.020;16.720;2024-03-29T18:49:49;12.13;;;1.90;;
41514;SDS011;27247;48.020;16.720;2024-03-29T18:53:59;10.63;;;2.70;;
41514;SDS011;27247;48.020;16.720;2024-03-29T18:58:10;9.33;;;2.30;;
41514;SDS011;27247;48.020;16.720;2024-03-29T19:02:20;12.50;;;2.57;;
41514;SDS011;27247;48.020;16.720;2024-03-29T19:06:30;12.77;;;2.27;;
41514;SDS011;27247;48.020;16.720;2024-03-29T19:10:41;14.75;;;2.78;;
41514;SDS011;27247;48.020;16.720;2024-03-29T19:14:52;11.07;;;2.63;;
41514;SDS011;27247;48.020;16.720;2024-03-29T19:19:02;24.43;;;6.50;;
41514;SDS011;27247;48.020;16.720;2024-03-29T19:23:12;22.50;;;6.78;;
41514;SDS011;27247;48.020;16.720;2024-03-29T19:27:23;20.40;;;3.28;;
41514;SDS011;27247;48.020;16.720;2024-03-29T19:31:33;18.90;;;5.50;;
41514;SDS011;27247;48.020;16.720;2024-03-29T19:35:43;31.77;;;10.68;;
41514;SDS011;27247;48.020;16.720;2024-03-29T19:39:54;23.48;;;3.78;;
41514;SDS011;27247;48.020;16.720;2024-03-29T19:44:04;14.27;;;3.88;;
41514;SDS011;27247;48.020;16.720;2024-03-29T19:48:16;17.95;;;2.97;;
41514;SDS011;27247;48.020;16.720;2024-03-29T19:52:26;11.18;;;3.25;;
41514;SDS011;27247;48.020;16.720;2024-03-29T19:56:36;19.15;;;2.63;;
41514;SDS011;27247;48.020;16.720;2024-03-29T20:00:47;20.73;;;3.38;;
41514;SDS011;27247;48.020;16.720;2024-03-29T20:04:57;13.82;;;2.83;;
41514;SDS011;27247;48.020;16.720;2024-03-29T20:09:08;15.63;;;2.67;;
41514;SDS011;27247;48.020;16.720;2024-03-29T20:13:18;15.73;;;3.10;;
41514;SDS011;27247;48.020;16.720;2024-03-29T20:17:28;21.10;;;2.93;;
41514;SDS011;27247;48.020;16.720;2024-03-29T20:21:39;28.33;;;3.95;;
41514;SDS011;27247;48.020;16.720;2024-03-29T20:25:50;17.60;;;3.40;;
41514;SDS011;27247;48.020;16.720;2024-03-29T20:30:00;18.02;;;3.13;;
41514;SDS011;27247;48.020;16.720;2024-03-29T20:34:11;21.00;;;3.63;;
41514;SDS011;27247;48.020;16.720;2024-03-29T20:38:21;21.27;;;4.05;;
41514;SDS011;27247;48.020;16.720;2024-03-29T20:42:31;18.85;;;3.70;;
41514;SDS011;27247;48.020;16.720;2024-03-29T20:46:42;21.60;;;3.70;;
41514;SDS011;27247;48.020;16.720;2024-03-29T20:50:58;18.38;;;3.15;;
41514;SDS011;27247;48.020;16.720;2024-03-29T20:55:09;25.65;;;3.70;;
41514;SDS011;27247;48.020;16.720;2024-03-29T20:59:20;28.33;;;4.10;;
41514;SDS011;27247;48.020;16.720;2024-03-29T21:03:30;26.73;;;5.33;;
41514;SDS011;27247;48.020;16.720;2024-03-29T21:08:00;24.08;;;3.80;;
41514;SDS011;27247;48.020;16.720;2024-03-29T21:12:11;23.67;;;4.03;;
41514;SDS011;27247;48.020;16.720;2024-03-29T21:16:22;23.63;;;4.53;;
41514;SDS011;27247;48.020;16.720;2024-03-29T21:20:33;24.67;;;3.70;;
41514;SDS011;27247;48.020;16.720;2024-03-29T21:24:43;17.33;;;3.57;;
41514;SDS011;27247;48.020;16.720;2024-03-29T21:28:54;22.98;;;3.75;;
41514;SDS011;27247;48.020;16.720;2024-03-29T21:33:04;25.43;;;3.97;;
41514;SDS011;27247;48.020;16.720;2024-03-29T21:37:14;33.72;;;4.47;;
41514;SDS011;27247;48.020;16.720;2024-03-29T21:41:25;21.98;;;3.80;;
41514;SDS011;27247;48.020;16.720;2024-03-29T21:45:36;25.20;;;4.13;;
41514;SDS011;27247;48.020;16.720;2024-03-29T21:49:46;20.10;;;5.07;;
41514;SDS011;27247;48.020;16.720;2024-03-29T21:53:58;32.88;;;5.07;;
41514;SDS011;27247;48.020;16.720;2024-03-29T21:58:10;31.60;;;3.92;;
41514;SDS011;27247;48.020;16.720;2024-03-29T22:02:21;40.08;;;5.30;;
41514;SDS011;27247;48.020;16.720;2024-03-29T22:06:31;33.88;;;4.70;;
41514;SDS011;27247;48.020;16.720;2024-03-29T22:10:44;31.95;;;4.93;;
41514;SDS011;27247;48.020;16.720;2024-03-29T22:14:54;29.10;;;4.80;;
41514;SDS011;27247;48.020;16.720;2024-03-29T22:19:08;38.35;;;5.55;;
41514;SDS011;27247;48.020;16.720;2024-03-29T22:23:19;32.28;;;4.32;;
41514;SDS011;27247;48.020;16.720;2024-03-29T22:27:29;32.47;;;4.70;;
41514;SDS011;27247;48.020;16.720;2024-03-29T22:31:40;27.47;;;4.57;;
41514;SDS011;27247;48.020;16.720;2024-03-29T22:35:52;45.20;;;6.20;;
41514;SDS011;27247;48.020;16.720;2024-03-29T22:40:03;43.40;;;5.70;;
41514;SDS011;27247;48.020;16.720;2024-03-29T22:44:13;38.90;;;5.93;;
41514;SDS011;27247;48.020;16.720;2024-03-29T22:48:23;36.07;;;4.87;;
41514;SDS011;27247;48.020;16.720;2024-03-29T22:52:34;46.65;;;5.63;;
41514;SDS011;27247;48.020;16.720;2024-03-29T22:56:44;41.17;;;5.20;;
41514;SDS011;27247;48.020;16.720;2024-03-29T23:00:56;41.47;;;6.20;;
41514;SDS011;27247;48.020;16.720;2024-03-29T23:05:07;44.13;;;6.68;;
41514;SDS011;27247;48.020;16.720;2024-03-29T23:09:17;44.03;;;6.27;;
41514;SDS011;27247;48.020;16.720;2024-03-29T23:13:28;46.00;;;6.45;;
41514;SDS011;27247;48.020;16.720;2024-03-29T23:17:38;46.43;;;6.83;;
41514;SDS011;27247;48.020;16.720;2024-03-29T23:21:49;58.63;;;6.90;;
41514;SDS011;27247;48.020;16.720;2024-03-29T23:25:59;43.93;;;6.03;;
41514;SDS011;27247;48.020;16.720;2024-03-29T23:30:10;46.38;;;6.68;;
41514;SDS011;27247;48.020;16.720;2024-03-29T23:34:20;52.92;;;7.15;;
41514;SDS011;27247;48.020;16.720;2024-03-29T23:38:31;52.00;;;7.00;;
41514;SDS011;27247;48.020;16.720;2024-03-29T23:42:41;56.92;;;8.88;;
41514;SDS011;27247;48.020;16.720;2024-03-29T23:46:51;67.77;;;8.27;;
41514;SDS011;27247;48.020;16.720;2024-03-29T23:51:02;61.33;;;8.87;;
41514;SDS011;27247;48.020;16.720;2024-03-29T23:55:15;51.85;;;7.90;;
41514;SDS011;27247;48.020;16.720;2024-03-29T23:59:25;40.88;;;7.65;;
